createdAt,value
2019-02-23T00:00:55.733Z,11.33
2019-02-23T00:01:59.969Z,12.25
2019-02-23T00:03:03.964Z,11.00
2019-02-23T00:04:07.806Z,12.65
2019-02-23T00:05:11.989Z,11.97
2019-02-23T00:06:16.084Z,11.90
2019-02-23T00:07:19.994Z,11.73
2019-02-23T00:08:24.084Z,11.48
2019-02-23T00:09:28.179Z,11.68
2019-02-23T00:10:32.125Z,12.65
2019-02-23T00:11:36.352Z,11.88
2019-02-23T00:12:40.956Z,11.90
2019-02-23T00:13:45.731Z,11.60
2019-02-23T00:14:49.985Z,11.33
2019-02-23T00:15:54.227Z,12.07
2019-02-23T00:16:58.398Z,12.35
2019-02-23T00:18:02.641Z,12.40
2019-02-23T00:19:06.626Z,12.25
2019-02-23T00:20:10.635Z,11.78
2019-02-23T00:21:14.805Z,11.93
2019-02-23T00:22:18.790Z,10.65
2019-02-23T00:23:22.628Z,13.20
2019-02-23T00:24:26.470Z,12.35
2019-02-23T00:25:30.401Z,11.85
2019-02-23T00:26:34.489Z,12.07
2019-02-23T00:27:38.333Z,14.15
2019-02-23T00:28:42.336Z,10.23
2019-02-23T00:29:46.680Z,11.83
2019-02-23T00:30:50.864Z,12.20
2019-02-23T00:31:55.341Z,8.73
2019-02-23T00:32:59.687Z,10.55
2019-02-23T00:34:04.093Z,12.03
2019-02-23T00:35:08.349Z,12.73
2019-02-23T00:36:12.510Z,11.85
2019-02-23T00:37:16.849Z,12.10
2019-02-23T00:38:20.765Z,12.15
2019-02-23T00:39:24.678Z,12.40
2019-02-23T00:40:28.608Z,12.05
2019-02-23T00:41:33.090Z,12.30
2019-02-23T00:42:37.005Z,12.15
2019-02-23T00:43:40.923Z,11.18
2019-02-23T00:44:45.085Z,12.13
2019-02-23T00:45:49.366Z,11.88
2019-02-23T00:46:53.489Z,12.85
2019-02-23T00:47:58.001Z,12.07
2019-02-23T00:49:02.518Z,11.38
2019-02-23T00:50:06.826Z,12.13
2019-02-23T00:51:11.359Z,11.43
2019-02-23T00:52:16.051Z,12.15
2019-02-23T00:53:20.155Z,13.10
2019-02-23T00:54:24.884Z,12.47
2019-02-23T00:55:29.054Z,11.12
2019-02-23T00:56:33.059Z,11.75
2019-02-23T00:57:37.228Z,11.63
2019-02-23T00:58:41.416Z,12.43
2019-02-23T00:59:45.505Z,13.03
2019-02-23T01:00:50.375Z,11.97
2019-02-23T01:01:54.288Z,11.73
2019-02-23T01:02:59.159Z,11.93
2019-02-23T01:04:03.462Z,11.63
2019-02-23T01:05:07.654Z,11.63
2019-02-23T01:06:12.000Z,10.90
2019-02-23T01:07:16.571Z,10.85
2019-02-23T01:08:21.379Z,10.65
2019-02-23T01:09:25.595Z,11.53
2019-02-23T01:10:29.841Z,11.55
2019-02-23T01:11:33.751Z,11.85
2019-02-23T01:12:37.663Z,8.18
2019-02-23T01:13:41.793Z,7.47
2019-02-23T01:14:45.633Z,11.28
2019-02-23T01:15:49.629Z,12.33
2019-02-23T01:16:53.609Z,11.57
2019-02-23T01:17:58.030Z,11.22
2019-02-23T01:19:02.274Z,12.25
2019-02-23T01:20:07.609Z,11.60
2019-02-23T01:21:11.621Z,10.58
2019-02-23T01:22:15.536Z,11.33
2019-02-23T01:23:20.271Z,11.63
2019-02-23T01:24:24.198Z,11.60
2019-02-23T01:25:28.527Z,11.18
2019-02-23T01:26:32.892Z,11.57
2019-02-23T01:27:36.885Z,12.25
2019-02-23T01:28:41.002Z,11.25
2019-02-23T01:29:44.841Z,11.55
2019-02-23T01:30:49.059Z,11.38
2019-02-23T01:31:53.228Z,10.00
2019-02-23T01:32:57.217Z,10.38
2019-02-23T01:34:02.022Z,10.82
2019-02-23T01:35:06.920Z,12.03
2019-02-23T01:36:11.412Z,11.70
2019-02-23T01:37:15.895Z,10.78
2019-02-23T01:38:20.128Z,10.30
2019-02-23T01:39:24.287Z,11.88
2019-02-23T01:40:28.274Z,11.65
2019-02-23T01:41:32.447Z,10.70
2019-02-23T01:42:36.352Z,11.18
2019-02-23T01:43:40.259Z,10.93
2019-02-23T01:44:44.351Z,11.55
2019-02-23T01:45:48.533Z,11.80
2019-02-23T01:46:52.373Z,11.05
2019-02-23T01:47:56.790Z,10.95
2019-02-23T01:49:01.123Z,10.82
2019-02-23T01:50:05.362Z,10.53
2019-02-23T01:51:09.797Z,11.48
2019-02-23T01:52:13.946Z,11.20
2019-02-23T01:53:18.184Z,11.45
2019-02-23T01:54:22.340Z,11.83
2019-02-23T01:55:26.254Z,11.00
2019-02-23T01:56:30.779Z,11.12
2019-02-23T01:57:34.660Z,11.38
2019-02-23T01:58:39.092Z,11.60
2019-02-23T01:59:43.256Z,10.55
2019-02-23T02:00:47.415Z,11.25
2019-02-23T02:01:51.657Z,12.15
2019-02-23T02:02:55.892Z,11.73
2019-02-23T02:03:59.732Z,11.85
2019-02-23T02:05:04.252Z,11.90
2019-02-23T02:06:08.176Z,11.50
2019-02-23T02:07:12.513Z,11.65
2019-02-23T02:08:16.499Z,11.73
2019-02-23T02:09:20.652Z,11.75
2019-02-23T02:10:24.810Z,12.70
2019-02-23T02:11:28.674Z,12.40
2019-02-23T02:12:32.812Z,12.18
2019-02-23T02:13:37.320Z,12.70
2019-02-23T02:14:41.231Z,12.78
2019-02-23T02:15:45.431Z,12.35
2019-02-23T02:16:50.053Z,12.13
2019-02-23T02:17:54.093Z,11.12
2019-02-23T02:18:58.389Z,11.78
2019-02-23T02:20:10.476Z,11.57
2019-02-23T02:21:08.938Z,12.15
2019-02-23T02:22:13.184Z,12.35
2019-02-23T02:23:17.330Z,12.25
2019-02-23T02:24:21.173Z,11.57
2019-02-23T02:25:25.024Z,11.85
2019-02-23T02:26:29.034Z,12.37
2019-02-23T02:27:32.974Z,12.20
2019-02-23T02:28:36.891Z,10.95
2019-02-23T02:29:41.180Z,13.35
2019-02-23T02:30:45.056Z,13.10
2019-02-23T02:31:49.312Z,12.85
2019-02-23T02:32:53.432Z,12.35
2019-02-23T02:34:08.415Z,12.80
2019-02-23T02:35:12.705Z,11.93
2019-02-23T02:36:17.153Z,13.08
2019-02-23T02:37:21.629Z,12.10
2019-02-23T02:38:26.243Z,12.93
2019-02-23T02:39:30.583Z,13.32
2019-02-23T02:40:34.988Z,12.88
2019-02-23T02:41:38.986Z,12.60
2019-02-23T02:42:43.245Z,13.18
2019-02-23T02:43:47.176Z,12.98
2019-02-23T02:44:52.098Z,13.22
2019-02-23T02:45:56.305Z,13.50
2019-02-23T02:47:00.150Z,13.10
2019-02-23T02:48:04.155Z,13.22
2019-02-23T02:49:08.435Z,12.63
2019-02-23T02:50:23.672Z,13.20
2019-02-23T02:51:18.743Z,13.13
2019-02-23T02:52:23.097Z,13.48
2019-02-23T02:53:27.296Z,12.73
2019-02-23T02:54:31.495Z,13.68
2019-02-23T02:55:35.712Z,13.70
2019-02-23T02:56:39.693Z,12.75
2019-02-23T02:57:43.897Z,13.53
2019-02-23T02:58:48.303Z,13.88
2019-02-23T02:59:52.285Z,13.53
2019-02-23T03:00:56.830Z,12.90
2019-02-23T03:02:01.140Z,14.03
2019-02-23T03:03:04.983Z,13.98
2019-02-23T03:04:09.337Z,13.48
2019-02-23T03:05:14.137Z,13.70
2019-02-23T03:06:18.057Z,14.13
2019-02-23T03:07:22.768Z,14.47
2019-02-23T03:08:27.005Z,13.85
2019-02-23T03:09:31.494Z,13.93
2019-02-23T03:10:35.700Z,13.75
2019-02-23T03:11:39.737Z,14.20
2019-02-23T03:12:43.600Z,12.93
2019-02-23T03:13:47.869Z,14.98
2019-02-23T03:14:52.323Z,13.62
2019-02-23T03:15:56.828Z,14.95
2019-02-23T03:17:01.069Z,10.70
2019-02-23T03:18:05.217Z,13.55
2019-02-23T03:19:09.773Z,14.73
2019-02-23T03:20:14.162Z,13.78
2019-02-23T03:21:17.997Z,14.98
2019-02-23T03:22:22.083Z,15.18
2019-02-23T03:23:25.994Z,15.05
2019-02-23T03:24:30.173Z,12.93
2019-02-23T03:25:34.319Z,13.35
2019-02-23T03:26:38.555Z,13.62
2019-02-23T03:27:42.976Z,14.30
2019-02-23T03:28:46.895Z,14.70
2019-02-23T03:29:50.745Z,15.03
2019-02-23T03:30:54.723Z,14.93
2019-02-23T03:31:58.561Z,15.53
2019-02-23T03:33:02.513Z,13.98
2019-02-23T03:34:06.774Z,15.50
2019-02-23T03:35:10.962Z,15.72
2019-02-23T03:36:15.115Z,15.48
2019-02-23T03:37:19.207Z,15.45
2019-02-23T03:38:23.300Z,15.50
2019-02-23T03:39:27.415Z,15.20
2019-02-23T03:40:31.398Z,16.10
2019-02-23T03:41:35.642Z,15.30
2019-02-23T03:42:39.818Z,16.07
2019-02-23T03:43:44.223Z,15.48
2019-02-23T03:44:48.641Z,16.07
2019-02-23T03:45:52.476Z,16.15
2019-02-23T03:46:56.631Z,15.93
2019-02-23T03:48:01.356Z,16.67
2019-02-23T03:49:05.859Z,14.80
2019-02-23T03:50:09.852Z,15.83
2019-02-23T03:51:14.087Z,16.40
2019-02-23T03:52:18.324Z,16.50
2019-02-23T03:53:22.576Z,16.10
2019-02-23T03:54:26.807Z,16.00
2019-02-23T03:55:30.719Z,16.55
2019-02-23T03:56:35.204Z,17.32
2019-02-23T03:57:39.541Z,16.67
2019-02-23T03:58:43.736Z,16.35
2019-02-23T03:59:47.930Z,16.97
2019-02-23T04:00:51.920Z,16.27
2019-02-23T04:01:57.001Z,16.48
2019-02-23T04:03:00.924Z,17.02
2019-02-23T04:04:04.911Z,16.97
2019-02-23T04:05:09.758Z,15.85
2019-02-23T04:06:13.663Z,15.95
2019-02-23T04:07:18.189Z,16.35
2019-02-23T04:08:22.113Z,15.95
2019-02-23T04:09:26.393Z,17.20
2019-02-23T04:10:30.599Z,16.27
2019-02-23T04:11:34.515Z,16.90
2019-02-23T04:12:38.820Z,17.15
2019-02-23T04:13:43.316Z,15.93
2019-02-23T04:14:47.499Z,16.77
2019-02-23T04:15:51.415Z,16.55
2019-02-23T04:16:55.451Z,15.90
2019-02-23T04:18:00.056Z,17.12
2019-02-23T04:19:04.351Z,16.90
2019-02-23T04:20:08.372Z,16.77
2019-02-23T04:21:12.552Z,15.38
2019-02-23T04:22:16.662Z,16.60
2019-02-23T04:23:21.086Z,17.42
2019-02-23T04:24:25.282Z,16.10
2019-02-23T04:25:29.141Z,17.12
2019-02-23T04:26:32.990Z,16.25
2019-02-23T04:27:36.910Z,16.65
2019-02-23T04:28:41.607Z,17.75
2019-02-23T04:29:47.029Z,16.42
2019-02-23T04:30:51.023Z,15.55
2019-02-23T04:31:55.175Z,16.57
2019-02-23T04:32:59.861Z,16.62
2019-02-23T04:34:04.270Z,16.20
2019-02-23T04:35:08.532Z,14.93
2019-02-23T04:36:12.683Z,17.10
2019-02-23T04:37:16.777Z,16.07
2019-02-23T04:38:20.614Z,15.90
2019-02-23T04:39:24.951Z,16.07
2019-02-23T04:40:28.792Z,16.48
2019-02-23T04:41:33.587Z,17.00
2019-02-23T04:42:37.693Z,16.97
2019-02-23T04:43:44.239Z,16.17
2019-02-23T04:44:48.644Z,16.90
2019-02-23T04:45:52.563Z,17.32
2019-02-23T04:46:56.653Z,16.12
2019-02-23T04:48:00.492Z,16.85
2019-02-23T04:49:04.645Z,17.55
2019-02-23T04:50:09.022Z,17.07
2019-02-23T04:51:14.625Z,16.77
2019-02-23T04:52:18.416Z,16.37
2019-02-23T04:53:22.755Z,16.87
2019-02-23T04:54:26.850Z,17.85
2019-02-23T04:55:31.016Z,16.35
2019-02-23T04:56:34.928Z,16.97
2019-02-23T04:57:39.016Z,16.25
2019-02-23T04:58:43.372Z,16.02
2019-02-23T04:59:47.210Z,17.37
2019-02-23T05:00:51.129Z,16.15
2019-02-23T05:01:55.297Z,17.40
2019-02-23T05:02:59.759Z,16.73
2019-02-23T05:04:03.920Z,17.07
2019-02-23T05:05:08.740Z,16.82
2019-02-23T05:06:13.412Z,15.08
2019-02-23T05:07:17.575Z,17.62
2019-02-23T05:08:21.664Z,17.67
2019-02-23T05:09:25.601Z,17.50
2019-02-23T05:10:29.734Z,16.40
2019-02-23T05:11:33.589Z,16.67
2019-02-23T05:12:37.421Z,15.75
2019-02-23T05:13:41.765Z,16.35
2019-02-23T05:14:45.851Z,17.90
2019-02-23T05:15:50.491Z,18.92
2019-02-23T05:16:54.400Z,18.15
2019-02-23T05:17:58.804Z,17.80
2019-02-23T05:19:02.898Z,17.32
2019-02-23T05:20:06.940Z,17.98
2019-02-23T05:21:11.333Z,17.90
2019-02-23T05:22:15.603Z,18.05
2019-02-23T05:23:19.884Z,18.52
2019-02-23T05:24:24.052Z,18.45
2019-02-23T05:25:27.885Z,16.62
2019-02-23T05:26:32.006Z,16.52
2019-02-23T05:27:36.163Z,18.05
2019-02-23T05:28:40.427Z,17.62
2019-02-23T05:29:44.911Z,17.87
2019-02-23T05:30:48.976Z,17.82
2019-02-23T05:31:53.527Z,17.62
2019-02-23T05:32:57.901Z,17.70
2019-02-23T05:34:01.997Z,16.87
2019-02-23T05:35:06.446Z,17.02
2019-02-23T05:36:11.052Z,17.35
2019-02-23T05:37:15.234Z,16.60
2019-02-23T05:38:19.144Z,17.67
2019-02-23T05:39:23.431Z,16.65
2019-02-23T05:40:27.536Z,16.65
2019-02-23T05:41:32.081Z,16.90
2019-02-23T05:42:36.592Z,17.00
2019-02-23T05:43:40.798Z,17.35
2019-02-23T05:44:45.105Z,16.52
2019-02-23T05:45:49.015Z,18.23
2019-02-23T05:46:53.311Z,16.52
2019-02-23T05:47:57.493Z,17.48
2019-02-23T05:49:01.935Z,17.23
2019-02-23T05:50:06.248Z,17.98
2019-02-23T05:51:10.346Z,16.75
2019-02-23T05:52:14.460Z,19.40
2019-02-23T05:53:18.672Z,17.62
2019-02-23T05:54:23.117Z,13.75
2019-02-23T05:55:27.393Z,17.27
2019-02-23T05:56:31.985Z,16.75
2019-02-23T05:57:36.180Z,16.87
2019-02-23T05:58:40.241Z,16.45
2019-02-23T05:59:45.057Z,16.70
2019-02-23T06:00:49.883Z,15.40
2019-02-23T06:01:54.598Z,16.15
2019-02-23T06:02:58.957Z,8.45
2019-02-23T06:04:02.796Z,15.50
2019-02-23T06:05:07.370Z,17.25
2019-02-23T06:06:11.713Z,16.90
2019-02-23T06:07:16.634Z,17.00
2019-02-23T06:08:20.735Z,17.70
2019-02-23T06:09:25.083Z,17.82
2019-02-23T06:10:28.987Z,17.60
2019-02-23T06:11:33.332Z,18.10
2019-02-23T06:12:37.726Z,16.73
2019-02-23T06:13:41.817Z,17.90
2019-02-23T06:14:45.903Z,17.82
2019-02-23T06:15:49.740Z,16.12
2019-02-23T06:16:54.147Z,17.15
2019-02-23T06:17:58.745Z,16.87
2019-02-23T06:19:02.583Z,19.48
2019-02-23T06:20:06.824Z,16.73
2019-02-23T06:21:11.274Z,17.07
2019-02-23T06:22:15.113Z,16.12
2019-02-23T06:23:19.846Z,18.07
2019-02-23T06:24:24.009Z,16.70
2019-02-23T06:25:27.898Z,17.75
2019-02-23T06:26:32.325Z,19.00
2019-02-23T06:27:36.436Z,20.30
2019-02-23T06:28:40.692Z,23.70
2019-02-23T06:29:44.781Z,26.77
2019-02-23T06:30:49.027Z,20.45
2019-02-23T06:31:53.294Z,18.65
2019-02-23T06:32:57.572Z,24.35
2019-02-23T06:34:01.390Z,18.15
2019-02-23T06:35:06.152Z,18.77
2019-02-23T06:36:10.137Z,17.37
2019-02-23T06:37:14.356Z,20.02
2019-02-23T06:38:18.558Z,18.10
2019-02-23T06:39:23.181Z,20.02
2019-02-23T06:40:27.285Z,15.85
2019-02-23T06:41:32.035Z,15.60
2019-02-23T06:42:35.986Z,15.70
2019-02-23T06:43:39.931Z,16.12
2019-02-23T06:44:44.083Z,16.23
2019-02-23T06:45:48.316Z,14.75
2019-02-23T06:46:52.522Z,16.52
2019-02-23T06:47:56.606Z,16.55
2019-02-23T06:49:00.838Z,16.27
2019-02-23T06:50:05.155Z,16.32
2019-02-23T06:51:09.855Z,15.90
2019-02-23T06:52:14.473Z,16.35
2019-02-23T06:53:18.388Z,17.37
2019-02-23T06:54:22.598Z,16.67
2019-02-23T06:55:26.882Z,17.67
2019-02-23T06:56:31.105Z,18.55
2019-02-23T06:57:35.616Z,17.77
2019-02-23T06:58:40.154Z,18.00
2019-02-23T06:59:44.811Z,19.12
2019-02-23T07:00:48.896Z,18.12
2019-02-23T07:01:53.070Z,21.00
2019-02-23T07:02:56.975Z,19.17
2019-02-23T07:04:01.419Z,17.15
2019-02-23T07:05:05.897Z,17.40
2019-02-23T07:06:10.425Z,16.67
2019-02-23T07:07:14.588Z,18.20
2019-02-23T07:08:18.777Z,18.57
2019-02-23T07:09:22.860Z,18.25
2019-02-23T07:10:26.701Z,19.15
2019-02-23T07:11:30.541Z,15.90
2019-02-23T07:12:34.629Z,17.32
2019-02-23T07:13:41.802Z,17.30
2019-02-23T07:14:45.645Z,17.32
2019-02-23T07:15:49.473Z,16.85
2019-02-23T07:16:53.708Z,16.17
2019-02-23T07:17:57.615Z,15.28
2019-02-23T07:19:01.780Z,16.02
2019-02-23T07:20:06.117Z,17.57
2019-02-23T07:21:10.276Z,18.48
2019-02-23T07:22:15.781Z,17.73
2019-02-23T07:23:20.253Z,16.05
2019-02-23T07:24:24.088Z,17.23
2019-02-23T07:25:28.519Z,15.53
2019-02-23T07:26:32.683Z,18.32
2019-02-23T07:27:36.526Z,16.23
2019-02-23T07:28:40.611Z,16.25
2019-02-23T07:29:44.716Z,15.85
2019-02-23T07:30:49.123Z,15.53
2019-02-23T07:31:53.463Z,14.58
2019-02-23T07:32:58.128Z,13.08
2019-02-23T07:34:02.292Z,14.58
2019-02-23T07:35:06.611Z,14.30
2019-02-23T07:36:10.976Z,14.45
2019-02-23T07:37:15.103Z,14.95
2019-02-23T07:38:19.618Z,15.23
2019-02-23T07:39:23.973Z,15.40
2019-02-23T07:40:28.200Z,15.78
2019-02-23T07:41:32.335Z,17.62
2019-02-23T07:42:36.262Z,15.72
2019-02-23T07:43:40.445Z,13.60
2019-02-23T07:44:44.649Z,14.15
2019-02-23T07:45:48.836Z,16.62
2019-02-23T07:46:53.055Z,17.77
2019-02-23T07:47:57.538Z,17.40
2019-02-23T07:49:01.981Z,16.20
2019-02-23T07:50:07.373Z,15.13
2019-02-23T07:51:11.516Z,15.08
2019-02-23T07:52:25.709Z,15.65
2019-02-23T07:53:21.382Z,13.53
2019-02-23T07:54:25.610Z,14.43
2019-02-23T07:55:30.091Z,15.00
2019-02-23T07:56:35.173Z,12.50
2019-02-23T07:57:39.268Z,15.90
2019-02-23T07:58:43.823Z,14.45
2019-02-23T07:59:48.411Z,15.35
2019-02-23T08:00:52.404Z,12.10
2019-02-23T08:01:56.492Z,13.55
2019-02-23T08:03:00.719Z,13.55
2019-02-23T08:04:04.705Z,13.35
2019-02-23T08:05:09.147Z,14.50
2019-02-23T08:06:13.656Z,13.62
2019-02-23T08:07:17.636Z,13.95
2019-02-23T08:08:22.128Z,13.70
2019-02-23T08:09:26.565Z,12.93
2019-02-23T08:10:30.967Z,14.45
2019-02-23T08:11:35.646Z,12.75
2019-02-23T08:12:39.802Z,14.40
2019-02-23T08:13:43.898Z,12.90
2019-02-23T08:14:48.234Z,14.45
2019-02-23T08:15:52.583Z,12.65
2019-02-23T08:16:56.662Z,8.78
2019-02-23T08:18:00.577Z,12.18
2019-02-23T08:19:04.557Z,12.95
2019-02-23T08:20:08.777Z,11.68
2019-02-23T08:21:12.708Z,13.58
2019-02-23T08:22:16.784Z,15.05
2019-02-23T08:23:21.522Z,14.03
2019-02-23T08:24:25.427Z,13.90
2019-02-23T08:25:29.754Z,12.80
2019-02-23T08:26:33.681Z,13.53
2019-02-23T08:27:38.091Z,13.85
2019-02-23T08:28:42.705Z,12.78
2019-02-23T08:29:46.863Z,11.85
2019-02-23T08:30:50.870Z,11.38
2019-02-23T08:31:55.103Z,12.95
2019-02-23T08:32:59.193Z,13.62
2019-02-23T08:34:03.539Z,13.22
2019-02-23T08:35:07.862Z,13.03
2019-02-23T08:36:12.295Z,13.53
2019-02-23T08:37:16.791Z,12.78
2019-02-23T08:38:20.634Z,13.80
2019-02-23T08:39:24.800Z,13.18
2019-02-23T08:40:29.218Z,13.75
2019-02-23T08:41:33.649Z,13.62
2019-02-23T08:42:37.903Z,13.78
2019-02-23T08:43:41.800Z,13.20
2019-02-23T08:44:45.899Z,13.32
2019-02-23T08:45:49.732Z,14.58
2019-02-23T08:46:54.160Z,12.90
2019-02-23T08:47:58.514Z,12.93
2019-02-23T08:49:02.786Z,12.53
2019-02-23T08:50:08.838Z,12.30
2019-02-23T08:51:13.309Z,13.43
2019-02-23T08:52:18.366Z,13.30
2019-02-23T08:53:22.616Z,13.00
2019-02-23T08:54:27.437Z,13.48
2019-02-23T08:55:31.957Z,13.90
2019-02-23T08:56:36.363Z,13.45
2019-02-23T08:57:40.568Z,13.48
2019-02-23T08:58:45.385Z,12.82
2019-02-23T08:59:49.716Z,13.20
2019-02-23T09:00:54.413Z,12.15
2019-02-23T09:01:58.820Z,13.90
2019-02-23T09:03:03.133Z,12.07
2019-02-23T09:04:07.103Z,12.90
2019-02-23T09:05:12.083Z,12.73
2019-02-23T09:06:16.601Z,13.15
2019-02-23T09:07:21.402Z,8.40
2019-02-23T09:08:25.649Z,13.32
2019-02-23T09:09:30.108Z,11.43
2019-02-23T09:10:34.286Z,12.37
2019-02-23T09:11:38.822Z,13.58
2019-02-23T09:12:43.130Z,12.93
2019-02-23T09:13:47.237Z,13.18
2019-02-23T09:14:51.620Z,13.70
2019-02-23T09:15:55.976Z,13.35
2019-02-23T09:17:00.166Z,13.18
2019-02-23T09:18:04.334Z,14.30
2019-02-23T09:19:08.414Z,14.00
2019-02-23T09:20:12.894Z,13.88
2019-02-23T09:21:16.981Z,13.50
2019-02-23T09:22:21.702Z,12.78
2019-02-23T09:23:26.008Z,12.95
2019-02-23T09:24:30.189Z,12.75
2019-02-23T09:25:34.025Z,12.78
2019-02-23T09:26:38.935Z,13.28
2019-02-23T09:27:43.358Z,14.73
2019-02-23T09:28:47.784Z,12.33
2019-02-23T09:29:52.271Z,12.28
2019-02-23T09:30:57.191Z,12.05
2019-02-23T09:32:01.423Z,12.82
2019-02-23T09:33:05.718Z,12.85
2019-02-23T09:34:10.216Z,13.18
2019-02-23T09:35:14.450Z,12.45
2019-02-23T09:36:18.356Z,12.45
2019-02-23T09:37:22.649Z,13.15
2019-02-23T09:38:26.497Z,12.55
2019-02-23T09:39:30.733Z,13.03
2019-02-23T09:40:35.288Z,12.75
2019-02-23T09:41:39.756Z,13.35
2019-02-23T09:42:43.928Z,12.82
2019-02-23T09:43:47.879Z,13.30
2019-02-23T09:44:52.119Z,12.88
2019-02-23T09:45:56.393Z,13.13
2019-02-23T09:47:01.097Z,12.85
2019-02-23T09:48:05.707Z,13.32
2019-02-23T09:49:10.384Z,12.65
2019-02-23T09:50:15.152Z,13.72
2019-02-23T09:51:19.234Z,12.80
2019-02-23T09:52:23.644Z,13.72
2019-02-23T09:53:27.986Z,13.05
2019-02-23T09:54:32.397Z,13.08
2019-02-23T09:55:36.774Z,12.25
2019-02-23T09:56:41.110Z,12.78
2019-02-23T09:57:45.539Z,13.22
2019-02-23T09:58:49.439Z,11.97
2019-02-23T09:59:53.532Z,12.07
2019-02-23T10:00:57.685Z,12.73
2019-02-23T10:02:02.417Z,12.47
2019-02-23T10:03:06.402Z,11.78
2019-02-23T10:04:10.823Z,12.40
2019-02-23T10:05:15.089Z,11.83
2019-02-23T10:06:18.929Z,12.68
2019-02-23T10:07:23.159Z,11.20
2019-02-23T10:08:27.334Z,13.70
2019-02-23T10:09:31.949Z,12.73
2019-02-23T10:10:36.856Z,12.30
2019-02-23T10:11:40.691Z,12.95
2019-02-23T10:12:44.784Z,12.58
2019-02-23T10:13:48.887Z,12.33
2019-02-23T10:14:53.321Z,11.57
2019-02-23T10:15:57.474Z,12.25
2019-02-23T10:17:01.384Z,12.65
2019-02-23T10:18:05.377Z,12.20
2019-02-23T10:19:09.650Z,12.50
2019-02-23T10:20:14.234Z,12.18
2019-02-23T10:21:18.264Z,11.95
2019-02-23T10:22:22.675Z,12.65
2019-02-23T10:23:26.856Z,12.75
2019-02-23T10:24:31.215Z,12.30
2019-02-23T10:25:35.670Z,12.75
2019-02-23T10:26:39.838Z,12.35
2019-02-23T10:27:44.396Z,13.00
2019-02-23T10:28:48.314Z,12.70
2019-02-23T10:29:52.415Z,12.05
2019-02-23T10:30:56.577Z,11.73
2019-02-23T10:32:00.701Z,12.23
2019-02-23T10:33:04.810Z,12.47
2019-02-23T10:34:09.096Z,12.30
2019-02-23T10:35:13.409Z,11.38
2019-02-23T10:36:17.606Z,12.23
2019-02-23T10:37:21.731Z,11.28
2019-02-23T10:38:26.286Z,12.28
2019-02-23T10:39:30.144Z,11.73
2019-02-23T10:40:34.655Z,11.60
2019-02-23T10:41:38.640Z,12.58
2019-02-23T10:42:43.477Z,12.55
2019-02-23T10:43:47.313Z,11.55
2019-02-23T10:44:51.496Z,12.13
2019-02-23T10:45:55.792Z,10.80
2019-02-23T10:47:00.245Z,11.80
2019-02-23T10:48:04.156Z,11.50
2019-02-23T10:49:08.607Z,12.10
2019-02-23T10:50:12.730Z,12.25
2019-02-23T10:51:16.717Z,11.35
2019-02-23T10:52:21.225Z,12.98
2019-02-23T10:53:32.648Z,12.10
2019-02-23T10:54:31.423Z,11.20
2019-02-23T10:55:35.345Z,11.70
2019-02-23T10:56:39.791Z,11.88
2019-02-23T10:57:43.625Z,11.75
2019-02-23T10:58:47.494Z,11.60
2019-02-23T10:59:51.692Z,11.85
2019-02-23T11:00:55.844Z,12.13
2019-02-23T11:02:00.527Z,11.50
2019-02-23T11:03:04.454Z,11.43
2019-02-23T11:04:09.129Z,11.35
2019-02-23T11:05:13.809Z,10.93
2019-02-23T11:06:18.211Z,11.15
2019-02-23T11:07:22.116Z,9.55
2019-02-23T11:08:26.018Z,11.65
2019-02-23T11:09:34.614Z,11.00
2019-02-23T11:10:39.040Z,11.40
2019-02-23T11:11:43.762Z,12.40
2019-02-23T11:12:47.925Z,11.83
2019-02-23T11:13:51.908Z,11.45
2019-02-23T11:14:55.892Z,10.98
2019-02-23T11:16:00.059Z,10.55
2019-02-23T11:17:04.048Z,11.57
2019-02-23T11:18:08.212Z,11.78
2019-02-23T11:19:12.616Z,11.95
2019-02-23T11:20:17.374Z,9.83
2019-02-23T11:21:21.855Z,11.57
2019-02-23T11:22:26.183Z,10.53
2019-02-23T11:23:30.670Z,8.63
2019-02-23T11:24:34.909Z,10.05
2019-02-23T11:25:38.899Z,10.72
2019-02-23T11:26:42.808Z,10.60
2019-02-23T11:27:47.266Z,9.85
2019-02-23T11:28:51.520Z,10.55
2019-02-23T11:29:55.754Z,10.85
2019-02-23T11:31:00.229Z,10.75
2019-02-23T11:32:04.219Z,11.20
2019-02-23T11:33:08.145Z,11.15
2019-02-23T11:34:12.546Z,11.33
2019-02-23T11:35:17.560Z,8.90
2019-02-23T11:36:22.055Z,9.78
2019-02-23T11:37:26.311Z,9.73
2019-02-23T11:38:30.300Z,9.80
2019-02-23T11:39:35.137Z,10.45
2019-02-23T11:40:39.050Z,9.33
2019-02-23T11:41:43.597Z,10.00
2019-02-23T11:42:47.523Z,9.90
2019-02-23T11:43:51.704Z,10.72
2019-02-23T11:44:56.320Z,9.70
2019-02-23T11:46:00.201Z,10.70
2019-02-23T11:47:04.525Z,9.93
2019-02-23T11:48:08.522Z,10.03
2019-02-23T11:49:12.805Z,9.60
2019-02-23T11:50:17.098Z,10.35
2019-02-23T11:51:20.964Z,10.18
2019-02-23T11:52:25.200Z,10.32
2019-02-23T11:53:29.451Z,9.80
2019-02-23T11:54:33.365Z,7.17
2019-02-23T11:55:37.655Z,9.80
2019-02-23T11:56:41.590Z,11.00
2019-02-23T11:57:45.869Z,10.08
2019-02-23T11:58:50.101Z,9.78
2019-02-23T11:59:54.379Z,9.73
2019-02-23T12:00:58.895Z,9.75
2019-02-23T12:02:03.011Z,10.40
2019-02-23T12:03:07.336Z,10.58
2019-02-23T12:04:11.928Z,10.18
2019-02-23T12:05:16.601Z,10.00
2019-02-23T12:06:20.531Z,9.80
2019-02-23T12:07:24.460Z,10.38
2019-02-23T12:08:28.650Z,10.60
2019-02-23T12:09:33.150Z,10.58
2019-02-23T12:10:37.309Z,10.45
2019-02-23T12:11:41.494Z,10.38
2019-02-23T12:12:45.404Z,10.30
2019-02-23T12:13:49.386Z,9.60
2019-02-23T12:14:53.667Z,10.00
2019-02-23T12:15:57.582Z,9.80
2019-02-23T12:17:01.766Z,9.30
2019-02-23T12:18:05.927Z,9.63
2019-02-23T12:19:10.011Z,9.83
2019-02-23T12:20:14.253Z,9.78
2019-02-23T12:21:18.589Z,9.58
2019-02-23T12:22:22.698Z,10.20
2019-02-23T12:23:27.216Z,10.08
2019-02-23T12:24:31.064Z,10.78
2019-02-23T12:25:34.967Z,9.95
2019-02-23T12:26:38.814Z,10.43
2019-02-23T12:27:43.065Z,9.38
2019-02-23T12:28:47.681Z,10.15
2019-02-23T12:29:51.516Z,9.18
2019-02-23T12:30:55.429Z,7.42
2019-02-23T12:31:59.336Z,8.88
2019-02-23T12:33:03.183Z,8.95
2019-02-23T12:34:07.272Z,8.83
2019-02-23T12:35:11.774Z,8.58
2019-02-23T12:36:15.934Z,9.00
2019-02-23T12:37:20.023Z,8.85
2019-02-23T12:38:23.930Z,9.60
2019-02-23T12:39:28.270Z,9.28
2019-02-23T12:40:32.107Z,9.35
2019-02-23T12:41:36.196Z,9.18
2019-02-23T12:42:40.205Z,9.18
2019-02-23T12:43:44.048Z,9.53
2019-02-23T12:44:48.472Z,9.18
2019-02-23T12:45:52.382Z,8.25
2019-02-23T12:46:56.765Z,9.38
2019-02-23T12:48:01.488Z,8.95
2019-02-23T12:49:05.656Z,7.83
2019-02-23T12:50:10.415Z,8.58
2019-02-23T12:51:14.334Z,8.35
2019-02-23T12:52:18.316Z,9.40
2019-02-23T12:53:22.404Z,9.83
2019-02-23T12:54:26.321Z,10.28
2019-02-23T12:55:30.664Z,10.13
2019-02-23T12:56:34.924Z,9.60
2019-02-23T12:57:39.745Z,9.45
2019-02-23T12:58:44.182Z,8.53
2019-02-23T12:59:48.493Z,9.13
2019-02-23T13:00:52.784Z,10.10
2019-02-23T13:01:56.704Z,10.88
2019-02-23T13:03:01.284Z,11.03
2019-02-23T13:04:05.903Z,11.30
2019-02-23T13:05:10.785Z,10.28
2019-02-23T13:06:15.483Z,9.80
2019-02-23T13:07:19.744Z,10.65
2019-02-23T13:08:25.930Z,9.55
2019-02-23T13:09:33.347Z,9.90
2019-02-23T13:10:37.465Z,10.15
2019-02-23T13:11:42.129Z,9.70
2019-02-23T13:13:17.688Z,9.85
2019-02-23T13:15:04.580Z,10.65
2019-02-23T13:16:30.187Z,9.50
2019-02-23T13:18:17.067Z,10.55
2019-02-23T13:20:07.290Z,9.78
2019-02-23T13:21:26.825Z,6.67
2019-02-23T13:23:17.835Z,9.23
2019-02-23T13:25:03.004Z,9.35
2019-02-23T13:26:45.625Z,9.55
2019-02-23T13:28:39.197Z,9.35
2019-02-23T13:30:20.344Z,9.50
2019-02-23T13:31:51.050Z,9.78
2019-02-23T13:33:30.379Z,9.78
2019-02-23T13:34:59.882Z,9.45
2019-02-23T13:36:36.816Z,9.85
2019-02-23T13:37:54.506Z,9.28
2019-02-23T13:39:25.447Z,10.13
2019-02-23T13:41:02.636Z,9.73
2019-02-23T13:42:18.606Z,10.45
2019-02-23T13:44:15.619Z,9.68
2019-02-23T13:45:36.392Z,10.32
2019-02-23T13:47:31.132Z,10.65
2019-02-23T13:49:14.802Z,11.15
2019-02-23T13:51:09.679Z,10.08
2019-02-23T13:52:32.184Z,10.35
2019-02-23T13:54:00.185Z,9.83
2019-02-23T13:56:03.474Z,10.60
2019-02-23T13:57:42.756Z,10.53
2019-02-23T13:59:34.486Z,9.43
2019-02-23T14:01:11.909Z,10.28
2019-02-23T14:02:55.520Z,9.40
2019-02-23T14:04:29.393Z,9.98
2019-02-23T14:06:02.376Z,9.53
2019-02-23T14:07:49.495Z,10.45
2019-02-23T14:09:52.524Z,10.00
2019-02-23T14:11:32.098Z,11.90
2019-02-23T14:13:04.142Z,10.35